Time;durP1;ratioP1;P1;durP2;ratioP2;P2;SDS_P1;SDS_P2;PMS_P1;PMS_P2;Temp;Humidity;BMP_temperature;BMP_pressure;BME280_temperature;BME280_humidity;BME280_pressure;Samples;Min_cycle;Max_cycle;Signal;HPM_P1;HPM_P2
2020/12/29 00:02:07;;;;;;;14.07;10.80;;;5.20;99.90;;;;;;5047896;28;20648;-67
2020/12/29 00:04:56;;;;;;;11.47;10.27;;;5.20;99.90;;;;;;5070292;28;21231;-68
2020/12/29 00:07:53;;;;;;;10.90;9.63;;;5.20;99.90;;;;;;5055821;28;20624;-68
2020/12/29 00:10:38;;;;;;;12.83;9.63;;;5.20;99.90;;;;;;5059213;28;20616;-68
2020/12/29 00:13:23;;;;;;;12.30;10.17;;;5.20;99.90;;;;;;5043685;28;21021;-68
2020/12/29 00:16:07;;;;;;;12.60;10.17;;;5.20;99.90;;;;;;5051494;28;20714;-68
2020/12/29 00:18:52;;;;;;;11.70;9.60;;;5.20;99.90;;;;;;5059924;28;20581;-68
2020/12/29 00:21:37;;;;;;;9.27;8.27;;;5.10;99.90;;;;;;5072454;28;20676;-68
2020/12/29 00:24:22;;;;;;;10.40;9.00;;;5.10;99.90;;;;;;5067635;28;20746;-68
2020/12/29 00:27:07;;;;;;;10.63;9.37;;;5.10;99.90;;;;;;5069590;28;20598;-68
2020/12/29 00:29:51;;;;;;;10.43;9.33;;;5.00;99.90;;;;;;5056060;28;20667;-68
2020/12/29 00:32:35;;;;;;;9.67;8.70;;;5.00;99.90;;;;;;5057851;28;20674;-67
2020/12/29 00:35:20;;;;;;;10.97;9.10;;;5.00;99.90;;;;;;5048202;28;20628;-68
2020/12/29 00:38:04;;;;;;;10.00;8.30;;;4.90;99.90;;;;;;5052757;28;20644;-68
2020/12/29 00:40:56;;;;;;;10.43;9.33;;;4.90;99.90;;;;;;5069243;28;20657;-68
2020/12/29 00:43:42;;;;;;;13.43;9.33;;;4.80;99.90;;;;;;5041884;28;20948;-67
2020/12/29 00:46:27;;;;;;;8.97;7.87;;;4.80;99.90;;;;;;5046973;28;21346;-68
2020/12/29 00:49:11;;;;;;;9.30;7.80;;;4.80;99.90;;;;;;5056118;28;22550;-67
2020/12/29 00:51:55;;;;;;;9.73;8.73;;;4.70;99.90;;;;;;5040807;28;20736;-68
2020/12/29 00:54:40;;;;;;;11.00;9.33;;;4.60;99.90;;;;;;5051648;28;20637;-67
2020/12/29 00:57:24;;;;;;;9.83;8.83;;;4.60;99.90;;;;;;5056435;28;20728;-68
2020/12/29 01:00:08;;;;;;;9.93;8.80;;;4.60;99.90;;;;;;5058777;28;20553;-67
2020/12/29 01:02:53;;;;;;;9.50;8.50;;;4.50;99.90;;;;;;5046284;28;20655;-68
2020/12/29 01:05:39;;;;;;;10.83;9.37;;;4.50;99.90;;;;;;5036517;28;20770;-68
2020/12/29 01:08:24;;;;;;;10.30;9.17;;;4.50;99.90;;;;;;5044888;28;20621;-68
2020/12/29 01:11:08;;;;;;;11.27;9.27;;;4.40;99.90;;;;;;5056894;28;20640;-67
2020/12/29 01:13:52;;;;;;;10.50;9.40;;;4.30;99.90;;;;;;5053651;28;20572;-68
2020/12/29 01:16:37;;;;;;;11.00;9.10;;;4.30;99.90;;;;;;5043118;28;21182;-70
2020/12/29 01:19:22;;;;;;;9.03;8.13;;;4.30;99.90;;;;;;5055508;28;20616;-69
2020/12/29 01:22:07;;;;;;;9.83;8.60;;;4.30;99.90;;;;;;5050646;28;21021;-68
2020/12/29 01:24:51;;;;;;;9.70;8.30;;;4.30;99.90;;;;;;5049527;28;20657;-68
2020/12/29 01:27:36;;;;;;;10.03;9.03;;;4.20;99.90;;;;;;5050697;28;20616;-67
2020/12/29 01:30:20;;;;;;;9.37;8.33;;;4.20;99.90;;;;;;5055756;28;20978;-68
2020/12/29 01:33:06;;;;;;;10.53;8.27;;;4.10;99.90;;;;;;5038303;28;20589;-68
2020/12/29 01:35:50;;;;;;;8.93;7.77;;;4.10;99.90;;;;;;5050380;28;21009;-67
2020/12/29 01:38:34;;;;;;;9.57;8.57;;;4.10;99.90;;;;;;5042752;28;20731;-68
2020/12/29 01:41:21;;;;;;;9.83;8.40;;;4.10;99.90;;;;;;5051840;28;21284;-68
2020/12/29 01:44:12;;;;;;;9.70;8.27;;;4.10;99.90;;;;;;5050469;28;20940;-67
2020/12/29 01:46:57;;;;;;;9.13;7.53;;;4.10;99.90;;;;;;5049256;28;20592;-67
2020/12/29 01:49:43;;;;;;;9.37;8.40;;;4.10;99.90;;;;;;5050406;28;20648;-67
2020/12/29 01:52:28;;;;;;;9.90;8.43;;;4.10;99.90;;;;;;5043613;28;21314;-68
2020/12/29 01:55:13;;;;;;;9.20;8.20;;;4.10;99.90;;;;;;5039046;28;20669;-68
2020/12/29 01:58:01;;;;;;;9.77;8.30;;;4.10;99.90;;;;;;5037078;28;20745;-68
2020/12/29 02:00:46;;;;;;;9.87;8.87;;;4.00;99.90;;;;;;5045162;28;20731;-68
2020/12/29 02:03:32;;;;;;;10.23;8.57;;;4.00;99.90;;;;;;5052132;28;20605;-67
2020/12/29 02:06:19;;;;;;;9.47;8.37;;;4.00;99.90;;;;;;5042280;28;20648;-68
2020/12/29 02:09:05;;;;;;;9.60;8.50;;;4.00;99.90;;;;;;5052820;28;20660;-68
2020/12/29 02:11:50;;;;;;;10.00;8.70;;;4.00;99.90;;;;;;5048056;28;20782;-67
2020/12/29 02:14:35;;;;;;;11.17;9.90;;;4.00;99.90;;;;;;5043710;28;20630;-67
2020/12/29 02:17:20;;;;;;;10.97;8.70;;;4.00;99.90;;;;;;5051174;28;21237;-68
2020/12/29 02:20:05;;;;;;;9.17;8.17;;;4.00;99.90;;;;;;5051038;28;20660;-67
2020/12/29 02:22:50;;;;;;;10.10;9.00;;;4.00;99.90;;;;;;5050536;28;20629;-67
2020/12/29 02:25:34;;;;;;;9.47;8.27;;;4.00;99.90;;;;;;5048398;28;20660;-68
2020/12/29 02:28:19;;;;;;;9.87;8.87;;;4.10;99.90;;;;;;5048316;28;20699;-68
2020/12/29 02:31:03;;;;;;;9.97;8.97;;;4.10;99.90;;;;;;5048982;28;20778;-68
2020/12/29 02:33:48;;;;;;;9.50;8.40;;;4.10;99.90;;;;;;5039016;28;20977;-67
2020/12/29 02:36:33;;;;;;;9.80;8.40;;;4.10;99.90;;;;;;5048222;28;20652;-68
2020/12/29 02:39:18;;;;;;;9.40;8.40;;;4.10;99.90;;;;;;5040317;28;20593;-68
2020/12/29 02:42:02;;;;;;;9.60;8.30;;;4.00;99.90;;;;;;5049711;28;20648;-67
2020/12/29 02:44:47;;;;;;;9.63;8.47;;;4.10;99.90;;;;;;5037133;28;20756;-67
2020/12/29 02:47:31;;;;;;;9.60;8.13;;;4.00;99.90;;;;;;5039923;28;20645;-68
2020/12/29 02:50:16;;;;;;;9.57;8.50;;;4.00;99.90;;;;;;5043616;28;20659;-67
2020/12/29 02:53:01;;;;;;;8.73;7.83;;;4.00;99.90;;;;;;5059521;28;20596;-67
2020/12/29 02:55:45;;;;;;;9.93;8.90;;;4.00;99.90;;;;;;5052371;28;21233;-67
2020/12/29 02:58:30;;;;;;;9.40;8.40;;;3.90;99.90;;;;;;5043047;28;20636;-67
2020/12/29 03:01:14;;;;;;;10.13;8.47;;;4.00;99.90;;;;;;5048076;28;21000;-68
2020/12/29 03:03:58;;;;;;;9.40;8.40;;;4.00;99.90;;;;;;5056363;28;20624;-68
2020/12/29 03:06:43;;;;;;;10.03;9.00;;;3.90;99.90;;;;;;5052943;28;20666;-67
2020/12/29 03:09:28;;;;;;;9.67;8.63;;;3.90;99.90;;;;;;5055703;28;20620;-67
2020/12/29 03:12:12;;;;;;;11.30;7.97;;;3.90;99.90;;;;;;5055511;28;20727;-67
2020/12/29 03:14:57;;;;;;;8.93;7.97;;;3.90;99.90;;;;;;5050204;28;20716;-67
2020/12/29 03:17:41;;;;;;;10.53;9.40;;;3.90;99.90;;;;;;5042544;28;20684;-67
2020/12/29 03:20:25;;;;;;;9.30;8.23;;;3.90;99.90;;;;;;5057624;28;20584;-67
2020/12/29 03:23:11;;;;;;;9.57;8.57;;;3.90;99.90;;;;;;5039757;28;20546;-66
2020/12/29 03:25:55;;;;;;;10.23;8.40;;;4.00;99.90;;;;;;5051228;28;20636;-66
2020/12/29 03:28:40;;;;;;;9.00;8.10;;;4.00;99.90;;;;;;5058323;28;20611;-66
2020/12/29 03:31:25;;;;;;;9.23;8.33;;;3.90;99.90;;;;;;5053990;28;20635;-66
2020/12/29 03:34:25;;;;;;;8.87;7.97;;;4.00;99.90;;;;;;5054355;28;21212;-66
2020/12/29 03:37:11;;;;;;;9.27;8.27;;;4.00;99.90;;;;;;5057956;28;20580;-66
2020/12/29 03:39:55;;;;;;;10.00;8.47;;;4.00;99.90;;;;;;5039290;28;20581;-66
2020/12/29 03:42:39;;;;;;;9.60;8.57;;;4.00;99.90;;;;;;5043734;28;20711;-66
2020/12/29 03:45:24;;;;;;;9.70;8.60;;;3.90;99.90;;;;;;5045567;28;20645;-66
2020/12/29 03:48:10;;;;;;;9.33;8.13;;;3.90;99.90;;;;;;5043259;28;20724;-66
2020/12/29 03:50:55;;;;;;;9.23;8.27;;;4.00;99.90;;;;;;5047395;28;20785;-66
2020/12/29 03:53:39;;;;;;;9.80;8.63;;;4.00;99.90;;;;;;5046643;28;20652;-66
2020/12/29 03:56:27;;;;;;;9.63;8.50;;;3.90;99.90;;;;;;5045452;28;20771;-66
2020/12/29 03:59:12;;;;;;;9.40;8.40;;;3.90;99.90;;;;;;5037069;28;20691;-66
2020/12/29 04:01:56;;;;;;;10.23;9.23;;;3.90;99.90;;;;;;5057717;28;20612;-66
2020/12/29 04:04:41;;;;;;;10.03;9.03;;;3.90;99.90;;;;;;5040118;28;21244;-66
2020/12/29 04:07:25;;;;;;;9.33;8.33;;;3.90;99.90;;;;;;5038422;28;20978;-65
2020/12/29 04:10:10;;;;;;;9.60;8.70;;;3.80;99.90;;;;;;5057702;28;20672;-66
2020/12/29 04:12:54;;;;;;;10.43;8.77;;;3.80;99.90;;;;;;5050830;28;20597;-66
2020/12/29 04:15:42;;;;;;;8.80;7.90;;;3.80;99.90;;;;;;5042481;28;20788;-66
2020/12/29 04:18:27;;;;;;;9.27;8.37;;;3.80;99.90;;;;;;5043019;28;20666;-66
2020/12/29 04:21:12;;;;;;;9.37;8.47;;;3.90;99.90;;;;;;5057701;28;21140;-66
2020/12/29 04:23:56;;;;;;;9.10;8.20;;;3.90;99.90;;;;;;5061804;28;20592;-66
2020/12/29 04:26:41;;;;;;;9.93;8.93;;;3.90;99.90;;;;;;5039621;28;20598;-66
2020/12/29 04:29:25;;;;;;;9.63;8.63;;;3.80;99.90;;;;;;5036004;28;20692;-66
2020/12/29 04:32:10;;;;;;;9.83;8.80;;;3.80;99.90;;;;;;5047915;28;20727;-66
2020/12/29 04:34:56;;;;;;;9.87;8.87;;;3.80;99.90;;;;;;5047568;28;20626;-66
2020/12/29 04:37:41;;;;;;;10.30;9.13;;;3.80;99.90;;;;;;5040522;28;20592;-66
2020/12/29 04:40:25;;;;;;;9.53;8.53;;;3.80;99.90;;;;;;5053628;28;20584;-66
2020/12/29 04:43:10;;;;;;;9.60;8.70;;;3.90;99.90;;;;;;5051514;28;20686;-66
2020/12/29 04:45:59;;;;;;;10.30;9.30;;;3.90;99.90;;;;;;5047399;28;20645;-66
2020/12/29 04:48:44;;;;;;;10.47;9.37;;;3.80;99.90;;;;;;5043449;28;20816;-66
2020/12/29 04:51:29;;;;;;;10.13;8.83;;;3.80;99.90;;;;;;5038327;28;20645;-66
2020/12/29 04:54:17;;;;;;;9.83;8.83;;;3.80;99.90;;;;;;5052518;28;20632;-66
2020/12/29 04:57:04;;;;;;;10.87;9.77;;;3.90;99.90;;;;;;5055721;28;20735;-66
2020/12/29 04:59:51;;;;;;;10.33;9.07;;;3.90;99.90;;;;;;5051145;28;20624;-65
2020/12/29 05:02:36;;;;;;;10.73;9.33;;;3.80;99.90;;;;;;5064847;28;20732;-70
2020/12/29 05:05:23;;;;;;;11.73;9.27;;;3.80;99.90;;;;;;5045288;28;20787;-66
2020/12/29 05:08:08;;;;;;;10.60;9.50;;;3.80;99.90;;;;;;5040493;28;20673;-66
2020/12/29 05:10:52;;;;;;;10.23;9.20;;;3.80;99.90;;;;;;5051364;28;20778;-66
2020/12/29 05:13:37;;;;;;;11.07;9.30;;;3.90;99.90;;;;;;5048328;28;20593;-66
2020/12/29 05:16:21;;;;;;;12.70;10.00;;;3.90;99.90;;;;;;5047277;28;20763;-66
2020/12/29 05:19:11;;;;;;;12.43;11.00;;;3.90;99.90;;;;;;5055204;28;20647;-66
2020/12/29 05:21:58;;;;;;;13.00;9.97;;;3.80;99.90;;;;;;5054613;28;20711;-66
2020/12/29 05:24:47;;;;;;;11.13;9.30;;;3.80;99.90;;;;;;5046707;28;20638;-66
2020/12/29 05:27:35;;;;;;;11.60;9.70;;;3.80;99.90;;;;;;5049640;28;21129;-66
2020/12/29 05:30:21;;;;;;;10.60;8.80;;;3.80;99.90;;;;;;5052178;28;21021;-67
2020/12/29 05:33:13;;;;;;;11.47;9.30;;;3.80;99.90;;;;;;5056653;28;20588;-66
2020/12/29 05:35:59;;;;;;;10.97;9.43;;;3.80;99.90;;;;;;5047407;28;20634;-66
2020/12/29 05:38:44;;;;;;;12.10;9.70;;;3.80;99.90;;;;;;5044373;28;20613;-66
2020/12/29 05:41:30;;;;;;;11.37;9.37;;;3.90;99.90;;;;;;5045456;28;20691;-66
2020/12/29 05:44:34;;;;;;;11.43;9.93;;;3.90;99.90;;;;;;5045015;28;20679;-66
2020/12/29 05:47:25;;;;;;;10.77;9.63;;;3.90;99.90;;;;;;5048851;28;20629;-66
2020/12/29 05:50:10;;;;;;;10.17;8.90;;;3.80;99.90;;;;;;5049622;28;20642;-66
2020/12/29 05:53:18;;;;;;;11.67;9.83;;;3.90;99.90;;;;;;5052152;28;21150;-66
2020/12/29 05:56:06;;;;;;;12.53;9.80;;;3.90;99.90;;;;;;5053525;28;20716;-66
2020/12/29 05:58:51;;;;;;;12.57;9.60;;;3.90;99.90;;;;;;5048014;28;21010;-66
2020/12/29 06:01:40;;;;;;;9.80;8.73;;;3.90;99.90;;;;;;5047138;28;21308;-66
2020/12/29 06:04:26;;;;;;;11.53;10.30;;;3.90;99.90;;;;;;5045823;28;20684;-66
2020/12/29 06:07:13;;;;;;;12.27;9.70;;;3.90;99.90;;;;;;5052068;28;20644;-66
2020/12/29 06:10:00;;;;;;;10.70;9.57;;;3.90;99.90;;;;;;5047382;28;20711;-66
2020/12/29 06:12:56;;;;;;;12.50;10.17;;;3.90;99.90;;;;;;5047399;28;20581;-66
2020/12/29 06:15:41;;;;;;;11.73;9.80;;;3.90;99.90;;;;;;5039034;28;20641;-66
2020/12/29 06:18:35;;;;;;;13.20;10.70;;;4.00;99.90;;;;;;5046357;28;20605;-65
2020/12/29 06:21:26;;;;;;;13.93;10.40;;;4.00;99.90;;;;;;5046788;28;20675;-67
2020/12/29 06:24:11;;;;;;;14.30;10.90;;;4.00;99.90;;;;;;5048185;28;21750;-66
2020/12/29 06:27:00;;;;;;;13.87;10.47;;;4.00;99.90;;;;;;5045737;28;21334;-67
2020/12/29 06:29:45;;;;;;;12.60;10.57;;;4.00;99.90;;;;;;5054202;28;21281;-67
2020/12/29 06:32:36;;;;;;;13.77;10.97;;;4.00;99.90;;;;;;5044570;28;20640;-67
2020/12/29 06:35:21;;;;;;;13.77;10.83;;;4.00;99.90;;;;;;5042291;28;21006;-67
2020/12/29 06:38:24;;;;;;;12.77;10.30;;;4.00;99.90;;;;;;5047329;28;20747;-66
2020/12/29 06:41:09;;;;;;;13.63;11.00;;;4.00;99.90;;;;;;5027839;28;21117;-67
2020/12/29 06:43:54;;;;;;;13.50;11.00;;;4.00;99.90;;;;;;5038249;28;20553;-67
2020/12/29 06:46:39;;;;;;;13.27;10.23;;;4.10;99.90;;;;;;5040847;28;20576;-67
2020/12/29 06:49:23;;;;;;;14.13;10.87;;;4.10;99.90;;;;;;5066999;28;20759;-67
2020/12/29 06:52:30;;;;;;;15.17;11.20;;;4.10;99.90;;;;;;5046855;28;20734;-67
2020/12/29 06:55:18;;;;;;;13.80;10.77;;;4.10;99.90;;;;;;5034657;28;20632;-67
2020/12/29 06:58:04;;;;;;;14.70;10.90;;;4.10;99.90;;;;;;5045842;28;21208;-67
2020/12/29 07:00:48;;;;;;;15.33;12.00;;;4.10;99.90;;;;;;5048722;28;20624;-66
2020/12/29 07:03:34;;;;;;;14.47;10.80;;;4.10;99.90;;;;;;5030948;28;20675;-66
2020/12/29 07:06:27;;;;;;;13.97;10.77;;;4.10;99.90;;;;;;5026718;28;20641;-67
2020/12/29 07:09:15;;;;;;;15.07;11.13;;;4.20;99.90;;;;;;5051571;28;20644;-67
2020/12/29 07:12:09;;;;;;;15.00;11.50;;;4.10;99.90;;;;;;5041049;28;20779;-67
2020/12/29 07:14:53;;;;;;;16.23;11.80;;;4.10;99.90;;;;;;5042114;28;20630;-67
2020/12/29 07:17:38;;;;;;;14.70;11.70;;;4.20;99.90;;;;;;5042469;28;20582;-67
2020/12/29 07:20:24;;;;;;;22.07;13.50;;;4.10;99.90;;;;;;5043136;28;20604;-66
2020/12/29 07:23:09;;;;;;;14.97;11.73;;;4.10;99.90;;;;;;5050188;28;21148;-67
2020/12/29 07:25:57;;;;;;;15.00;11.93;;;4.20;99.90;;;;;;5034670;28;20641;-67
2020/12/29 07:28:42;;;;;;;17.27;12.27;;;4.10;99.90;;;;;;5048395;28;20601;-67
2020/12/29 07:31:27;;;;;;;16.90;12.73;;;4.10;99.90;;;;;;5036102;28;20707;-66
2020/12/29 07:34:13;;;;;;;14.73;11.73;;;4.10;99.90;;;;;;5048059;28;20849;-66
2020/12/29 07:36:59;;;;;;;17.10;11.77;;;4.20;99.90;;;;;;5049905;28;20588;-67
2020/12/29 07:39:44;;;;;;;15.20;11.23;;;4.20;99.90;;;;;;5045049;28;20575;-67
2020/12/29 07:42:29;;;;;;;15.80;12.43;;;4.20;99.90;;;;;;5047535;28;20884;-67
2020/12/29 07:45:13;;;;;;;16.67;12.63;;;4.20;99.90;;;;;;5043460;28;20640;-67
2020/12/29 07:48:02;;;;;;;16.60;12.00;;;4.20;99.90;;;;;;5053120;28;20585;-66
2020/12/29 07:50:58;;;;;;;19.97;12.80;;;4.20;99.90;;;;;;5065710;28;20663;-66
2020/12/29 07:53:42;;;;;;;16.33;12.63;;;4.30;99.90;;;;;;5053970;28;20700;-66
2020/12/29 07:56:27;;;;;;;17.20;13.80;;;4.30;99.90;;;;;;5041480;28;21143;-66
2020/12/29 07:59:12;;;;;;;17.53;12.80;;;4.30;99.90;;;;;;5050845;28;20604;-66
2020/12/29 08:01:57;;;;;;;17.17;12.90;;;4.30;99.90;;;;;;5051165;28;20667;-66
2020/12/29 08:04:42;;;;;;;16.07;12.50;;;4.40;99.90;;;;;;5047140;28;20992;-66
2020/12/29 08:07:27;;;;;;;19.27;13.00;;;4.40;99.90;;;;;;5055041;28;20604;-67
2020/12/29 08:10:11;;;;;;;16.63;12.70;;;4.40;99.90;;;;;;5047116;28;20646;-66
2020/12/29 08:12:58;;;;;;;17.03;12.87;;;4.50;99.90;;;;;;5037693;28;20602;-67
2020/12/29 08:15:43;;;;;;;18.97;13.50;;;4.40;99.90;;;;;;5045730;28;20648;-66
2020/12/29 08:18:28;;;;;;;18.40;13.47;;;4.50;99.90;;;;;;5046140;28;20573;-67
2020/12/29 08:21:17;;;;;;;16.87;12.30;;;4.50;99.90;;;;;;5048052;28;20664;-66
2020/12/29 08:24:02;;;;;;;16.83;13.43;;;4.50;99.90;;;;;;5040572;28;20628;-67
2020/12/29 08:26:55;;;;;;;19.73;13.30;;;4.50;99.90;;;;;;5043963;28;21233;-66
2020/12/29 08:29:42;;;;;;;18.77;13.80;;;4.60;99.90;;;;;;5048316;28;20633;-67
2020/12/29 08:32:27;;;;;;;19.30;13.10;;;4.60;99.90;;;;;;5065071;28;20702;-67
2020/12/29 08:35:13;;;;;;;18.00;13.47;;;4.60;99.90;;;;;;5047066;28;20632;-67
2020/12/29 08:38:32;;;;;;;21.23;15.17;;;4.60;99.90;;;;;;5048051;28;21184;-67
2020/12/29 08:41:28;;;;;;;19.67;13.77;;;4.60;99.90;;;;;;5025519;28;20644;-66
2020/12/29 08:44:17;;;;;;;19.23;14.23;;;4.60;99.90;;;;;;5044851;28;21321;-65
2020/12/29 08:47:10;;;;;;;18.37;14.47;;;4.60;99.90;;;;;;5047600;28;20590;-68
2020/12/29 08:49:54;;;;;;;19.10;13.43;;;4.70;99.90;;;;;;5055759;28;20751;-66
2020/12/29 08:52:39;;;;;;;20.83;14.37;;;4.70;99.90;;;;;;5057481;28;20706;-67
2020/12/29 08:55:28;;;;;;;17.60;14.33;;;4.70;99.90;;;;;;5041475;28;20669;-67
2020/12/29 08:58:14;;;;;;;18.27;13.50;;;4.80;99.90;;;;;;5043814;28;20612;-67
2020/12/29 09:00:58;;;;;;;19.00;14.30;;;4.90;99.90;;;;;;5054443;28;20869;-67
2020/12/29 09:03:43;;;;;;;19.43;15.20;;;4.90;99.90;;;;;;5065816;28;20614;-68
2020/12/29 09:06:27;;;;;;;21.73;16.03;;;4.90;99.90;;;;;;5050513;28;20645;-70
2020/12/29 09:09:11;;;;;;;19.67;14.93;;;5.00;99.90;;;;;;5037261;28;20644;-70
2020/12/29 09:12:13;;;;;;;19.90;14.73;;;5.10;99.90;;;;;;5049362;28;20645;-70
2020/12/29 09:15:07;;;;;;;20.30;14.80;;;5.10;99.90;;;;;;5035763;28;20624;-69
2020/12/29 09:17:57;;;;;;;19.73;15.40;;;5.00;99.90;;;;;;5049030;28;20592;-70
2020/12/29 09:20:44;;;;;;;22.20;16.73;;;5.00;99.90;;;;;;5040381;28;20702;-70
2020/12/29 09:23:29;;;;;;;20.70;15.57;;;5.00;99.90;;;;;;5051619;23;20708;-71
2020/12/29 09:26:13;;;;;;;20.60;16.07;;;5.00;99.90;;;;;;5020013;28;20729;-71
2020/12/29 09:28:58;;;;;;;20.27;15.37;;;5.10;99.90;;;;;;5031473;28;20597;-66
2020/12/29 09:31:52;;;;;;;20.87;16.10;;;5.10;99.90;;;;;;5037793;28;20713;-66
2020/12/29 09:34:37;;;;;;;22.80;17.03;;;5.10;99.90;;;;;;5043282;28;21114;-68
2020/12/29 09:37:21;;;;;;;20.50;16.33;;;5.10;99.90;;;;;;5053397;28;20959;-67
2020/12/29 09:40:06;;;;;;;23.67;17.00;;;5.10;99.90;;;;;;5037612;28;20604;-67
2020/12/29 09:42:50;;;;;;;22.03;16.37;;;5.10;99.90;;;;;;5033446;28;21281;-67
2020/12/29 09:45:35;;;;;;;21.73;17.13;;;5.20;99.90;;;;;;5044963;28;21242;-68
2020/12/29 09:48:20;;;;;;;21.00;17.37;;;5.10;99.90;;;;;;5036622;28;20949;-67
2020/12/29 09:51:04;;;;;;;23.13;17.70;;;5.10;99.90;;;;;;5052207;28;20617;-68
2020/12/29 09:53:49;;;;;;;21.77;17.07;;;5.10;99.90;;;;;;5046003;28;20656;-66
2020/12/29 09:56:34;;;;;;;23.17;17.43;;;5.20;99.90;;;;;;5052620;28;20640;-67
2020/12/29 09:59:18;;;;;;;19.90;15.30;;;5.10;99.90;;;;;;5043141;28;20712;-67
2020/12/29 10:02:02;;;;;;;18.43;15.30;;;5.20;99.90;;;;;;5037894;28;20645;-67
2020/12/29 10:04:47;;;;;;;19.47;16.20;;;5.20;99.90;;;;;;5048926;28;20644;-67
2020/12/29 10:07:31;;;;;;;19.20;14.67;;;5.20;99.90;;;;;;5066601;28;20613;-67
2020/12/29 10:10:16;;;;;;;21.23;15.93;;;5.30;99.90;;;;;;5050060;28;20816;-67
2020/12/29 10:13:01;;;;;;;19.60;15.57;;;5.30;99.90;;;;;;5038167;28;20898;-67
2020/12/29 10:15:45;;;;;;;18.93;15.40;;;5.20;99.90;;;;;;5041597;28;20974;-68
2020/12/29 10:18:31;;;;;;;19.47;15.83;;;5.30;99.90;;;;;;5034423;28;20645;-68
2020/12/29 10:21:15;;;;;;;20.53;16.07;;;5.30;99.90;;;;;;5037976;28;20659;-67
2020/12/29 10:24:00;;;;;;;19.90;15.10;;;5.30;99.90;;;;;;5041102;28;20665;-68
2020/12/29 10:26:48;;;;;;;17.57;14.60;;;5.30;99.90;;;;;;5033606;28;20687;-67
2020/12/29 10:29:33;;;;;;;19.37;14.90;;;5.30;99.90;;;;;;5044818;28;20628;-68
2020/12/29 10:32:20;;;;;;;17.80;14.90;;;5.30;99.90;;;;;;5043827;28;20959;-68
2020/12/29 10:35:05;;;;;;;20.33;15.37;;;5.40;99.90;;;;;;5047940;28;20639;-68
2020/12/29 10:37:50;;;;;;;18.87;15.87;;;5.40;99.90;;;;;;5047460;28;21176;-68
2020/12/29 10:40:34;;;;;;;19.50;15.97;;;5.40;99.90;;;;;;5031430;28;21107;-68
2020/12/29 10:43:19;;;;;;;20.47;15.13;;;5.50;99.90;;;;;;5050198;28;21250;-68
2020/12/29 10:46:03;;;;;;;19.90;15.33;;;5.50;99.90;;;;;;5051664;28;20731;-67
2020/12/29 10:48:48;;;;;;;16.77;14.97;;;5.50;99.90;;;;;;5048324;28;20602;-68
2020/12/29 10:51:32;;;;;;;18.27;14.70;;;5.50;99.90;;;;;;5044077;28;20676;-68
2020/12/29 10:54:17;;;;;;;19.00;15.00;;;5.50;99.90;;;;;;5042576;28;20727;-69
2020/12/29 10:57:01;;;;;;;16.70;13.43;;;5.50;99.90;;;;;;5041601;28;20593;-67
2020/12/29 10:59:46;;;;;;;16.63;14.10;;;5.60;99.90;;;;;;5047618;28;20690;-68
2020/12/29 11:02:30;;;;;;;18.63;14.70;;;5.70;99.90;;;;;;5046475;28;20719;-68
2020/12/29 11:05:14;;;;;;;17.90;14.00;;;5.70;99.90;;;;;;5032519;28;20636;-71
2020/12/29 11:07:59;;;;;;;17.07;13.87;;;5.60;99.90;;;;;;5037109;28;20583;-67
2020/12/29 11:10:43;;;;;;;17.50;13.57;;;5.60;99.90;;;;;;5052826;28;20649;-67
2020/12/29 11:13:28;;;;;;;16.07;13.20;;;5.60;99.90;;;;;;5056059;28;20807;-68
2020/12/29 11:16:17;;;;;;;16.80;12.97;;;5.70;99.90;;;;;;5051420;28;20826;-72
2020/12/29 11:19:02;;;;;;;12.90;11.57;;;5.70;99.90;;;;;;5047672;28;20718;-79
2020/12/29 11:21:47;;;;;;;14.23;12.10;;;5.70;99.90;;;;;;5071383;28;20620;-74
2020/12/29 11:24:32;;;;;;;14.83;12.80;;;5.70;99.90;;;;;;5051708;28;20723;-74
2020/12/29 11:27:16;;;;;;;12.77;11.47;;;5.80;99.90;;;;;;5042127;28;20601;-75
2020/12/29 11:30:01;;;;;;;15.00;12.17;;;5.80;99.90;;;;;;5051538;28;20644;-71
2020/12/29 11:32:46;;;;;;;13.97;11.93;;;5.90;99.90;;;;;;5043958;28;20648;-71
2020/12/29 11:35:33;;;;;;;13.30;11.90;;;5.90;99.90;;;;;;5044148;28;21075;-71
2020/12/29 11:38:22;;;;;;;15.13;12.57;;;5.90;99.90;;;;;;5046187;28;20669;-70
2020/12/29 11:41:06;;;;;;;15.40;12.53;;;6.00;99.90;;;;;;5053156;28;21222;-69
2020/12/29 11:43:51;;;;;;;13.60;12.20;;;6.00;99.90;;;;;;5030948;28;20656;-69
2020/12/29 11:46:36;;;;;;;13.83;12.40;;;6.10;99.90;;;;;;5057786;28;20620;-69
2020/12/29 11:49:20;;;;;;;14.63;12.27;;;6.20;99.90;;;;;;5052114;28;20590;-69
2020/12/29 11:52:05;;;;;;;16.23;12.80;;;6.20;99.90;;;;;;5040492;28;21266;-67
2020/12/29 11:54:52;;;;;;;13.43;11.60;;;6.20;99.90;;;;;;5045911;28;20640;-68
2020/12/29 11:57:37;;;;;;;14.13;11.93;;;6.30;99.90;;;;;;5056050;28;20633;-67
2020/12/29 12:00:22;;;;;;;13.47;12.03;;;6.30;99.90;;;;;;5038744;28;20605;-68
2020/12/29 12:03:06;;;;;;;13.67;11.67;;;6.30;99.90;;;;;;5042210;28;20667;-67
2020/12/29 12:05:50;;;;;;;13.40;11.70;;;6.40;99.90;;;;;;5058417;28;20657;-68
2020/12/29 12:08:35;;;;;;;11.63;10.47;;;6.40;99.90;;;;;;5048164;28;20655;-68
2020/12/29 12:11:27;;;;;;;11.70;10.50;;;6.40;99.90;;;;;;5039691;28;20630;-68
2020/12/29 12:14:12;;;;;;;14.83;10.83;;;6.40;99.90;;;;;;5036266;28;20751;-71
2020/12/29 12:16:57;;;;;;;11.60;10.40;;;6.40;99.90;;;;;;5050025;28;20596;-69
2020/12/29 12:19:42;;;;;;;11.90;10.63;;;6.40;99.90;;;;;;5045852;28;20693;-68
2020/12/29 12:22:26;;;;;;;11.67;10.50;;;6.50;99.90;;;;;;5018323;28;655157;-69
2020/12/29 12:25:11;;;;;;;12.40;10.60;;;6.50;99.90;;;;;;5040455;28;20628;-68
2020/12/29 12:27:55;;;;;;;10.03;9.03;;;6.50;99.90;;;;;;5032185;28;22422;-68
2020/12/29 12:30:40;;;;;;;12.50;10.33;;;6.50;99.90;;;;;;5041953;28;20652;-68
2020/12/29 12:33:25;;;;;;;11.80;9.87;;;6.50;99.90;;;;;;5054909;28;21061;-68
2020/12/29 12:36:10;;;;;;;12.10;10.43;;;6.40;99.90;;;;;;5063425;28;20740;-72
2020/12/29 12:38:55;;;;;;;10.57;9.57;;;6.40;99.90;;;;;;5039765;28;20598;-72
2020/12/29 12:41:42;;;;;;;14.33;10.40;;;6.40;99.90;;;;;;5048049;28;20692;-73
2020/12/29 12:44:26;;;;;;;13.00;10.50;;;6.20;99.90;;;;;;5037010;28;20848;-73
2020/12/29 12:47:11;;;;;;;13.17;10.90;;;6.20;99.90;;;;;;5049441;28;20604;-73
2020/12/29 12:49:57;;;;;;;12.97;11.60;;;6.20;99.90;;;;;;5042060;28;20953;-73
2020/12/29 12:52:42;;;;;;;12.27;10.80;;;6.20;99.90;;;;;;5037463;28;20638;-73
2020/12/29 12:55:27;;;;;;;14.27;11.57;;;6.10;99.90;;;;;;5046248;28;20780;-73
2020/12/29 12:58:11;;;;;;;12.93;11.40;;;6.00;99.90;;;;;;5038893;28;21236;-72
2020/12/29 13:00:56;;;;;;;13.23;11.47;;;6.10;99.90;;;;;;5033812;28;20835;-73
2020/12/29 13:03:41;;;;;;;13.40;11.47;;;6.00;99.90;;;;;;5048758;28;20652;-72
2020/12/29 13:06:28;;;;;;;13.53;12.13;;;6.00;99.90;;;;;;5046352;28;20620;-69
2020/12/29 13:09:13;;;;;;;14.13;12.60;;;6.10;99.90;;;;;;5043813;28;20749;-68
2020/12/29 13:11:58;;;;;;;15.07;13.27;;;6.20;99.90;;;;;;5039636;28;20657;-67
2020/12/29 13:14:43;;;;;;;14.43;12.90;;;6.10;99.90;;;;;;5032063;28;20655;-68
2020/12/29 13:17:28;;;;;;;14.63;12.47;;;6.10;99.90;;;;;;5036470;28;20719;-68
2020/12/29 13:20:12;;;;;;;15.30;13.70;;;6.10;99.90;;;;;;5041316;28;20663;-68
2020/12/29 13:22:57;;;;;;;14.33;12.50;;;6.10;99.90;;;;;;5036293;28;20879;-69
2020/12/29 13:25:42;;;;;;;15.00;12.77;;;6.20;99.90;;;;;;5033052;28;20624;-68
2020/12/29 13:28:26;;;;;;;14.57;12.50;;;6.10;99.90;;;;;;5046086;28;20605;-68
2020/12/29 13:31:11;;;;;;;14.57;12.80;;;6.00;99.90;;;;;;5046087;28;20675;-68
2020/12/29 13:33:55;;;;;;;16.07;13.67;;;6.10;99.90;;;;;;5038436;28;20698;-68
2020/12/29 13:36:40;;;;;;;15.07;12.90;;;6.10;99.90;;;;;;5041482;28;20713;-68
2020/12/29 13:39:26;;;;;;;14.63;13.07;;;6.00;99.90;;;;;;5040089;28;20592;-68
2020/12/29 13:42:11;;;;;;;14.57;12.73;;;6.00;99.90;;;;;;5040191;28;20732;-69
2020/12/29 13:44:55;;;;;;;15.30;13.70;;;6.00;99.90;;;;;;5046071;28;20735;-68
2020/12/29 13:47:40;;;;;;;15.77;13.57;;;6.00;99.90;;;;;;5036892;28;20751;-68
2020/12/29 13:50:27;;;;;;;16.33;14.30;;;6.10;99.90;;;;;;5039415;28;20656;-68
2020/12/29 13:53:11;;;;;;;15.87;14.23;;;6.10;99.90;;;;;;5041807;28;21455;-68
2020/12/29 13:55:56;;;;;;;16.50;14.50;;;6.10;99.90;;;;;;5039749;28;20668;-68
2020/12/29 13:58:41;;;;;;;15.57;13.97;;;6.10;99.90;;;;;;5050651;28;21078;-69
2020/12/29 14:01:26;;;;;;;15.33;13.70;;;6.10;99.90;;;;;;5042163;28;20597;-68
2020/12/29 14:04:10;;;;;;;14.97;13.47;;;6.10;99.90;;;;;;5034110;28;20633;-74
2020/12/29 14:06:55;;;;;;;14.40;12.90;;;6.10;99.90;;;;;;5042180;28;20740;-70
2020/12/29 14:09:39;;;;;;;18.20;14.00;;;6.20;99.90;;;;;;5054794;28;20735;-71
2020/12/29 14:12:24;;;;;;;14.73;13.27;;;6.10;99.90;;;;;;5046499;28;20652;-71
2020/12/29 14:15:08;;;;;;;15.70;13.50;;;6.10;99.90;;;;;;5045833;28;20670;-71
2020/12/29 14:17:55;;;;;;;15.67;13.90;;;6.10;99.90;;;;;;5048257;28;20617;-72
2020/12/29 14:20:40;;;;;;;15.70;13.37;;;6.10;99.90;;;;;;5038811;28;20605;-72